sensor_id;sensor_type;location;lat;lon;timestamp;P1;durP1;ratioP1;P2;durP2;ratioP2
23290;SDS011;11814;44.686;10.842;2023-07-13T00:02:22;22.67;;;7.53;;
23290;SDS011;11814;44.686;10.842;2023-07-13T00:04:51;22.30;;;8.45;;
23290;SDS011;11814;44.686;10.842;2023-07-13T00:07:20;19.70;;;7.80;;
23290;SDS011;11814;44.686;10.842;2023-07-13T00:09:49;22.92;;;8.90;;
23290;SDS011;11814;44.686;10.842;2023-07-13T00:12:31;17.58;;;7.85;;
23290;SDS011;11814;44.686;10.842;2023-07-13T00:15:06;20.50;;;8.68;;
23290;SDS011;11814;44.686;10.842;2023-07-13T00:17:39;22.55;;;8.70;;
23290;SDS011;11814;44.686;10.842;2023-07-13T00:20:05;21.05;;;8.75;;
23290;SDS011;11814;44.686;10.842;2023-07-13T00:22:37;20.35;;;8.70;;
23290;SDS011;11814;44.686;10.842;2023-07-13T00:25:06;19.48;;;8.68;;
23290;SDS011;11814;44.686;10.842;2023-07-13T00:27:38;22.45;;;8.52;;
23290;SDS011;11814;44.686;10.842;2023-07-13T00:30:04;16.90;;;9.50;;
23290;SDS011;11814;44.686;10.842;2023-07-13T00:32:30;25.20;;;10.32;;
23290;SDS011;11814;44.686;10.842;2023-07-13T00:34:56;13.70;;;9.25;;
23290;SDS011;11814;44.686;10.842;2023-07-13T00:37:23;22.75;;;9.98;;
23290;SDS011;11814;44.686;10.842;2023-07-13T00:39:49;17.33;;;9.05;;
23290;SDS011;11814;44.686;10.842;2023-07-13T00:42:15;24.52;;;10.23;;
23290;SDS011;11814;44.686;10.842;2023-07-13T00:44:59;19.90;;;9.73;;
23290;SDS011;11814;44.686;10.842;2023-07-13T00:47:46;19.35;;;8.65;;
23290;SDS011;11814;44.686;10.842;2023-07-13T00:50:17;25.30;;;7.65;;
23290;SDS011;11814;44.686;10.842;2023-07-13T00:52:49;15.23;;;6.85;;
23290;SDS011;11814;44.686;10.842;2023-07-13T00:55:19;23.30;;;7.00;;
23290;SDS011;11814;44.686;10.842;2023-07-13T00:57:56;14.05;;;6.88;;
23290;SDS011;11814;44.686;10.842;2023-07-13T01:00:22;22.83;;;6.40;;
23290;SDS011;11814;44.686;10.842;2023-07-13T01:02:51;20.58;;;5.65;;
23290;SDS011;11814;44.686;10.842;2023-07-13T01:05:18;16.85;;;5.65;;
23290;SDS011;11814;44.686;10.842;2023-07-13T01:07:49;16.98;;;5.13;;
23290;SDS011;11814;44.686;10.842;2023-07-13T01:10:21;17.92;;;6.30;;
23290;SDS011;11814;44.686;10.842;2023-07-13T01:12:47;17.20;;;5.47;;
23290;SDS011;11814;44.686;10.842;2023-07-13T01:21:22;14.77;;;4.38;;
23290;SDS011;11814;44.686;10.842;2023-07-13T01:23:47;13.30;;;3.95;;
23290;SDS011;11814;44.686;10.842;2023-07-13T01:26:13;11.45;;;3.95;;
23290;SDS011;11814;44.686;10.842;2023-07-13T01:28:38;8.30;;;3.13;;
23290;SDS011;11814;44.686;10.842;2023-07-13T01:31:04;12.25;;;3.28;;
23290;SDS011;11814;44.686;10.842;2023-07-13T01:33:37;16.10;;;3.30;;
23290;SDS011;11814;44.686;10.842;2023-07-13T01:36:09;8.25;;;2.30;;
23290;SDS011;11814;44.686;10.842;2023-07-13T01:38:36;12.60;;;2.95;;
23290;SDS011;11814;44.686;10.842;2023-07-13T01:41:04;15.93;;;2.88;;
23290;SDS011;11814;44.686;10.842;2023-07-13T01:43:33;13.27;;;2.42;;
23290;SDS011;11814;44.686;10.842;2023-07-13T01:46:01;10.25;;;2.53;;
23290;SDS011;11814;44.686;10.842;2023-07-13T01:48:27;12.15;;;2.50;;
23290;SDS011;11814;44.686;10.842;2023-07-13T01:50:56;13.45;;;2.38;;
23290;SDS011;11814;44.686;10.842;2023-07-13T01:53:21;10.10;;;2.55;;
23290;SDS011;11814;44.686;10.842;2023-07-13T01:55:53;7.95;;;2.15;;
23290;SDS011;11814;44.686;10.842;2023-07-13T01:58:21;12.43;;;2.20;;
23290;SDS011;11814;44.686;10.842;2023-07-13T02:00:51;12.35;;;2.50;;
23290;SDS011;11814;44.686;10.842;2023-07-13T02:03:17;11.55;;;2.40;;
23290;SDS011;11814;44.686;10.842;2023-07-13T02:05:44;15.98;;;2.90;;
23290;SDS011;11814;44.686;10.842;2023-07-13T02:08:10;12.80;;;2.88;;
23290;SDS011;11814;44.686;10.842;2023-07-13T02:10:39;9.30;;;2.78;;
23290;SDS011;11814;44.686;10.842;2023-07-13T02:13:05;11.73;;;2.50;;
23290;SDS011;11814;44.686;10.842;2023-07-13T02:15:32;13.60;;;2.78;;
23290;SDS011;11814;44.686;10.842;2023-07-13T02:17:57;7.50;;;2.13;;
23290;SDS011;11814;44.686;10.842;2023-07-13T02:20:23;9.93;;;2.35;;
23290;SDS011;11814;44.686;10.842;2023-07-13T02:22:49;10.48;;;2.45;;
23290;SDS011;11814;44.686;10.842;2023-07-13T02:25:15;9.25;;;2.70;;
23290;SDS011;11814;44.686;10.842;2023-07-13T02:27:41;13.32;;;2.75;;
23290;SDS011;11814;44.686;10.842;2023-07-13T02:30:07;12.20;;;2.47;;
23290;SDS011;11814;44.686;10.842;2023-07-13T02:32:36;12.07;;;2.92;;
23290;SDS011;11814;44.686;10.842;2023-07-13T02:35:02;7.05;;;2.45;;
23290;SDS011;11814;44.686;10.842;2023-07-13T02:37:28;10.48;;;2.67;;
23290;SDS011;11814;44.686;10.842;2023-07-13T02:39:55;10.27;;;2.42;;
23290;SDS011;11814;44.686;10.842;2023-07-13T02:42:21;13.68;;;2.67;;
23290;SDS011;11814;44.686;10.842;2023-07-13T02:44:46;13.45;;;2.58;;
23290;SDS011;11814;44.686;10.842;2023-07-13T02:47:13;21.10;;;3.13;;
23290;SDS011;11814;44.686;10.842;2023-07-13T02:49:39;8.07;;;2.63;;
23290;SDS011;11814;44.686;10.842;2023-07-13T02:52:05;14.13;;;2.45;;
23290;SDS011;11814;44.686;10.842;2023-07-13T02:54:31;13.05;;;2.63;;
23290;SDS011;11814;44.686;10.842;2023-07-13T02:57:00;7.00;;;2.63;;
23290;SDS011;11814;44.686;10.842;2023-07-13T02:59:25;8.52;;;2.35;;
23290;SDS011;11814;44.686;10.842;2023-07-13T03:01:53;8.05;;;2.20;;
23290;SDS011;11814;44.686;10.842;2023-07-13T03:04:18;8.65;;;2.42;;
23290;SDS011;11814;44.686;10.842;2023-07-13T03:06:44;6.40;;;2.50;;
23290;SDS011;11814;44.686;10.842;2023-07-13T03:09:12;9.27;;;2.90;;
23290;SDS011;11814;44.686;10.842;2023-07-13T03:11:38;10.65;;;2.30;;
23290;SDS011;11814;44.686;10.842;2023-07-13T03:14:04;6.20;;;2.42;;
23290;SDS011;11814;44.686;10.842;2023-07-13T03:16:30;10.38;;;2.40;;
23290;SDS011;11814;44.686;10.842;2023-07-13T03:18:55;9.13;;;2.50;;
23290;SDS011;11814;44.686;10.842;2023-07-13T03:21:21;8.20;;;2.53;;
23290;SDS011;11814;44.686;10.842;2023-07-13T03:23:47;10.00;;;2.70;;
23290;SDS011;11814;44.686;10.842;2023-07-13T03:26:14;9.98;;;2.90;;
23290;SDS011;11814;44.686;10.842;2023-07-13T03:28:44;8.02;;;2.83;;
23290;SDS011;11814;44.686;10.842;2023-07-13T03:31:14;10.38;;;3.00;;
23290;SDS011;11814;44.686;10.842;2023-07-13T03:33:42;12.73;;;2.92;;
23290;SDS011;11814;44.686;10.842;2023-07-13T03:36:14;14.00;;;2.88;;
23290;SDS011;11814;44.686;10.842;2023-07-13T03:38:49;10.02;;;2.97;;
23290;SDS011;11814;44.686;10.842;2023-07-13T03:41:17;10.73;;;3.08;;
23290;SDS011;11814;44.686;10.842;2023-07-13T03:43:43;9.07;;;2.42;;
23290;SDS011;11814;44.686;10.842;2023-07-13T03:46:08;13.15;;;3.30;;
23290;SDS011;11814;44.686;10.842;2023-07-13T03:48:34;13.00;;;3.05;;
23290;SDS011;11814;44.686;10.842;2023-07-13T03:51:00;10.57;;;2.88;;
23290;SDS011;11814;44.686;10.842;2023-07-13T03:53:26;15.57;;;3.15;;
23290;SDS011;11814;44.686;10.842;2023-07-13T03:55:52;15.55;;;3.47;;
23290;SDS011;11814;44.686;10.842;2023-07-13T04:00:49;8.30;;;2.70;;
23290;SDS011;11814;44.686;10.842;2023-07-13T04:03:15;7.63;;;3.25;;
23290;SDS011;11814;44.686;10.842;2023-07-13T04:05:41;11.50;;;3.10;;
23290;SDS011;11814;44.686;10.842;2023-07-13T04:08:07;14.27;;;3.33;;
23290;SDS011;11814;44.686;10.842;2023-07-13T04:10:33;11.68;;;2.67;;
23290;SDS011;11814;44.686;10.842;2023-07-13T04:12:58;12.95;;;3.10;;
23290;SDS011;11814;44.686;10.842;2023-07-13T04:15:24;11.32;;;3.38;;
23290;SDS011;11814;44.686;10.842;2023-07-13T04:17:49;10.55;;;2.80;;
23290;SDS011;11814;44.686;10.842;2023-07-13T04:20:15;10.80;;;2.78;;
23290;SDS011;11814;44.686;10.842;2023-07-13T04:22:41;9.98;;;2.75;;
23290;SDS011;11814;44.686;10.842;2023-07-13T04:25:06;7.70;;;2.75;;
23290;SDS011;11814;44.686;10.842;2023-07-13T04:27:32;14.88;;;3.05;;
23290;SDS011;11814;44.686;10.842;2023-07-13T04:29:58;12.40;;;2.67;;
23290;SDS011;11814;44.686;10.842;2023-07-13T04:32:24;10.32;;;2.83;;
23290;SDS011;11814;44.686;10.842;2023-07-13T04:34:49;11.15;;;2.92;;
23290;SDS011;11814;44.686;10.842;2023-07-13T04:37:18;10.77;;;2.90;;
23290;SDS011;11814;44.686;10.842;2023-07-13T04:39:45;9.50;;;3.25;;
23290;SDS011;11814;44.686;10.842;2023-07-13T04:42:10;12.65;;;2.80;;
23290;SDS011;11814;44.686;10.842;2023-07-13T04:44:36;8.70;;;2.90;;
23290;SDS011;11814;44.686;10.842;2023-07-13T04:47:02;9.68;;;3.15;;
23290;SDS011;11814;44.686;10.842;2023-07-13T04:49:27;18.98;;;3.42;;
23290;SDS011;11814;44.686;10.842;2023-07-13T04:51:53;12.30;;;2.72;;
23290;SDS011;11814;44.686;10.842;2023-07-13T04:54:19;10.07;;;3.13;;
23290;SDS011;11814;44.686;10.842;2023-07-13T04:56:46;9.90;;;2.58;;
23290;SDS011;11814;44.686;10.842;2023-07-13T04:59:11;9.10;;;2.72;;
23290;SDS011;11814;44.686;10.842;2023-07-13T05:01:37;11.13;;;3.00;;
23290;SDS011;11814;44.686;10.842;2023-07-13T05:04:03;14.13;;;2.83;;
23290;SDS011;11814;44.686;10.842;2023-07-13T05:06:28;10.52;;;2.83;;
23290;SDS011;11814;44.686;10.842;2023-07-13T05:08:55;12.13;;;2.40;;
23290;SDS011;11814;44.686;10.842;2023-07-13T05:11:21;11.48;;;2.30;;
23290;SDS011;11814;44.686;10.842;2023-07-13T05:13:46;11.35;;;2.53;;
23290;SDS011;11814;44.686;10.842;2023-07-13T05:16:12;18.10;;;2.65;;
23290;SDS011;11814;44.686;10.842;2023-07-13T05:18:38;13.45;;;2.63;;
23290;SDS011;11814;44.686;10.842;2023-07-13T05:21:08;15.20;;;2.70;;
23290;SDS011;11814;44.686;10.842;2023-07-13T05:23:35;14.13;;;2.47;;
23290;SDS011;11814;44.686;10.842;2023-07-13T05:26:01;12.43;;;2.40;;
23290;SDS011;11814;44.686;10.842;2023-07-13T05:28:29;11.15;;;2.38;;
23290;SDS011;11814;44.686;10.842;2023-07-13T05:30:56;7.30;;;1.98;;
23290;SDS011;11814;44.686;10.842;2023-07-13T05:33:22;10.50;;;1.88;;
23290;SDS011;11814;44.686;10.842;2023-07-13T05:35:48;11.50;;;1.98;;
23290;SDS011;11814;44.686;10.842;2023-07-13T05:38:13;13.65;;;2.70;;
23290;SDS011;11814;44.686;10.842;2023-07-13T05:40:39;9.27;;;2.20;;
23290;SDS011;11814;44.686;10.842;2023-07-13T05:43:07;13.75;;;2.33;;
23290;SDS011;11814;44.686;10.842;2023-07-13T05:45:32;13.07;;;2.05;;
23290;SDS011;11814;44.686;10.842;2023-07-13T05:47:58;16.08;;;2.30;;
23290;SDS011;11814;44.686;10.842;2023-07-13T05:50:24;8.15;;;1.92;;
23290;SDS011;11814;44.686;10.842;2023-07-13T05:52:50;13.68;;;2.30;;
23290;SDS011;11814;44.686;10.842;2023-07-13T05:55:17;8.68;;;1.98;;
23290;SDS011;11814;44.686;10.842;2023-07-13T05:57:43;12.90;;;1.95;;
23290;SDS011;11814;44.686;10.842;2023-07-13T06:00:09;12.43;;;2.08;;
23290;SDS011;11814;44.686;10.842;2023-07-13T06:02:35;7.32;;;2.30;;
23290;SDS011;11814;44.686;10.842;2023-07-13T06:05:00;11.10;;;1.90;;
23290;SDS011;11814;44.686;10.842;2023-07-13T06:07:26;13.65;;;2.20;;
23290;SDS011;11814;44.686;10.842;2023-07-13T06:09:52;11.15;;;1.85;;
23290;SDS011;11814;44.686;10.842;2023-07-13T06:12:18;14.43;;;2.28;;
23290;SDS011;11814;44.686;10.842;2023-07-13T06:14:43;9.73;;;2.00;;
23290;SDS011;11814;44.686;10.842;2023-07-13T06:17:09;9.02;;;2.10;;
23290;SDS011;11814;44.686;10.842;2023-07-13T06:19:35;11.32;;;2.30;;
23290;SDS011;11814;44.686;10.842;2023-07-13T06:22:00;11.02;;;1.85;;
23290;SDS011;11814;44.686;10.842;2023-07-13T06:24:26;9.88;;;1.90;;
23290;SDS011;11814;44.686;10.842;2023-07-13T06:26:52;15.02;;;1.73;;
23290;SDS011;11814;44.686;10.842;2023-07-13T06:29:17;9.68;;;2.20;;
23290;SDS011;11814;44.686;10.842;2023-07-13T06:31:43;8.07;;;1.88;;
23290;SDS011;11814;44.686;10.842;2023-07-13T06:34:08;8.90;;;1.75;;
23290;SDS011;11814;44.686;10.842;2023-07-13T06:36:34;7.70;;;2.08;;
23290;SDS011;11814;44.686;10.842;2023-07-13T06:39:01;11.93;;;1.90;;
23290;SDS011;11814;44.686;10.842;2023-07-13T06:41:27;9.65;;;1.80;;
23290;SDS011;11814;44.686;10.842;2023-07-13T06:43:53;8.82;;;1.90;;
23290;SDS011;11814;44.686;10.842;2023-07-13T06:46:20;10.10;;;1.70;;
23290;SDS011;11814;44.686;10.842;2023-07-13T06:48:46;12.68;;;1.40;;
23290;SDS011;11814;44.686;10.842;2023-07-13T06:51:12;14.98;;;1.42;;
23290;SDS011;11814;44.686;10.842;2023-07-13T06:53:38;13.40;;;2.22;;
23290;SDS011;11814;44.686;10.842;2023-07-13T06:56:03;14.07;;;1.88;;
23290;SDS011;11814;44.686;10.842;2023-07-13T06:58:30;16.55;;;1.95;;
23290;SDS011;11814;44.686;10.842;2023-07-13T07:00:55;12.85;;;2.10;;
23290;SDS011;11814;44.686;10.842;2023-07-13T07:03:21;10.73;;;1.50;;
23290;SDS011;11814;44.686;10.842;2023-07-13T07:05:47;6.03;;;1.50;;
23290;SDS011;11814;44.686;10.842;2023-07-13T07:08:13;11.27;;;1.70;;
23290;SDS011;11814;44.686;10.842;2023-07-13T07:10:40;14.32;;;1.70;;
23290;SDS011;11814;44.686;10.842;2023-07-13T07:13:06;7.53;;;1.50;;
23290;SDS011;11814;44.686;10.842;2023-07-13T07:15:31;13.80;;;1.92;;
23290;SDS011;11814;44.686;10.842;2023-07-13T07:17:59;8.45;;;1.50;;
23290;SDS011;11814;44.686;10.842;2023-07-13T07:20:24;5.25;;;1.10;;
23290;SDS011;11814;44.686;10.842;2023-07-13T07:22:50;11.65;;;2.10;;
23290;SDS011;11814;44.686;10.842;2023-07-13T07:25:15;10.82;;;1.63;;
23290;SDS011;11814;44.686;10.842;2023-07-13T07:27:41;8.25;;;1.27;;
23290;SDS011;11814;44.686;10.842;2023-07-13T07:30:07;13.07;;;1.67;;
23290;SDS011;11814;44.686;10.842;2023-07-13T07:32:33;8.57;;;1.50;;
23290;SDS011;11814;44.686;10.842;2023-07-13T07:34:58;14.00;;;1.83;;
23290;SDS011;11814;44.686;10.842;2023-07-13T07:37:24;12.70;;;1.25;;
23290;SDS011;11814;44.686;10.842;2023-07-13T07:39:50;10.52;;;1.50;;
23290;SDS011;11814;44.686;10.842;2023-07-13T07:42:16;11.05;;;1.50;;
23290;SDS011;11814;44.686;10.842;2023-07-13T07:44:41;9.70;;;1.58;;
23290;SDS011;11814;44.686;10.842;2023-07-13T07:47:07;10.27;;;1.85;;
23290;SDS011;11814;44.686;10.842;2023-07-13T07:49:33;10.32;;;1.35;;
23290;SDS011;11814;44.686;10.842;2023-07-13T07:52:00;18.15;;;1.88;;
23290;SDS011;11814;44.686;10.842;2023-07-13T07:54:26;9.30;;;1.70;;
23290;SDS011;11814;44.686;10.842;2023-07-13T07:56:51;7.47;;;1.70;;
23290;SDS011;11814;44.686;10.842;2023-07-13T07:59:18;12.30;;;2.05;;
23290;SDS011;11814;44.686;10.842;2023-07-13T08:01:44;15.63;;;2.17;;
23290;SDS011;11814;44.686;10.842;2023-07-13T08:04:11;21.13;;;2.40;;
23290;SDS011;11814;44.686;10.842;2023-07-13T08:06:37;14.30;;;2.33;;
23290;SDS011;11814;44.686;10.842;2023-07-13T08:09:02;8.13;;;2.08;;
23290;SDS011;11814;44.686;10.842;2023-07-13T08:11:29;19.83;;;2.28;;
23290;SDS011;11814;44.686;10.842;2023-07-13T08:13:55;14.15;;;2.17;;
23290;SDS011;11814;44.686;10.842;2023-07-13T08:16:20;20.98;;;2.40;;
23290;SDS011;11814;44.686;10.842;2023-07-13T08:18:47;17.42;;;2.20;;
23290;SDS011;11814;44.686;10.842;2023-07-13T08:21:12;12.68;;;2.13;;
23290;SDS011;11814;44.686;10.842;2023-07-13T08:23:38;10.05;;;1.90;;
23290;SDS011;11814;44.686;10.842;2023-07-13T08:26:04;12.40;;;2.10;;
23290;SDS011;11814;44.686;10.842;2023-07-13T08:28:30;7.32;;;1.90;;
23290;SDS011;11814;44.686;10.842;2023-07-13T08:31:04;12.82;;;2.38;;
23290;SDS011;11814;44.686;10.842;2023-07-13T08:33:30;15.13;;;2.00;;
23290;SDS011;11814;44.686;10.842;2023-07-13T08:35:56;9.23;;;2.00;;
23290;SDS011;11814;44.686;10.842;2023-07-13T08:38:22;9.00;;;2.22;;
23290;SDS011;11814;44.686;10.842;2023-07-13T08:40:52;12.57;;;2.03;;
23290;SDS011;11814;44.686;10.842;2023-07-13T08:43:25;11.65;;;2.40;;
23290;SDS011;11814;44.686;10.842;2023-07-13T08:46:09;7.05;;;2.20;;
23290;SDS011;11814;44.686;10.842;2023-07-13T08:48:52;21.45;;;2.13;;
23290;SDS011;11814;44.686;10.842;2023-07-13T08:56:47;13.55;;;2.83;;
23290;SDS011;11814;44.686;10.842;2023-07-13T08:59:18;18.65;;;3.28;;
23290;SDS011;11814;44.686;10.842;2023-07-13T09:04:40;10.88;;;3.97;;
23290;SDS011;11814;44.686;10.842;2023-07-13T09:15:48;11.93;;;3.53;;
23290;SDS011;11814;44.686;10.842;2023-07-13T09:18:35;17.05;;;3.90;;
23290;SDS011;11814;44.686;10.842;2023-07-13T09:21:08;11.85;;;3.15;;
23290;SDS011;11814;44.686;10.842;2023-07-13T09:23:34;12.20;;;3.25;;
23290;SDS011;11814;44.686;10.842;2023-07-13T09:28:34;13.35;;;3.22;;
23290;SDS011;11814;44.686;10.842;2023-07-13T09:31:17;8.02;;;3.22;;
23290;SDS011;11814;44.686;10.842;2023-07-13T09:33:48;14.95;;;4.00;;
23290;SDS011;11814;44.686;10.842;2023-07-13T09:38:58;13.40;;;3.20;;
23290;SDS011;11814;44.686;10.842;2023-07-13T09:44:38;11.45;;;3.90;;
23290;SDS011;11814;44.686;10.842;2023-07-13T09:47:18;11.35;;;3.78;;
23290;SDS011;11814;44.686;10.842;2023-07-13T09:49:48;10.48;;;3.28;;
23290;SDS011;11814;44.686;10.842;2023-07-13T09:52:27;12.68;;;4.07;;
23290;SDS011;11814;44.686;10.842;2023-07-13T09:55:04;12.48;;;3.75;;
23290;SDS011;11814;44.686;10.842;2023-07-13T09:57:47;19.55;;;4.28;;
23290;SDS011;11814;44.686;10.842;2023-07-13T10:00:19;10.18;;;3.40;;
23290;SDS011;11814;44.686;10.842;2023-07-13T10:02:58;12.75;;;4.15;;
23290;SDS011;11814;44.686;10.842;2023-07-13T10:05:28;14.20;;;4.57;;
23290;SDS011;11814;44.686;10.842;2023-07-13T10:08:03;12.68;;;4.32;;
23290;SDS011;11814;44.686;10.842;2023-07-13T10:10:32;14.00;;;3.65;;
23290;SDS011;11814;44.686;10.842;2023-07-13T10:12:58;9.85;;;4.03;;
23290;SDS011;11814;44.686;10.842;2023-07-13T10:15:24;13.43;;;4.80;;
23290;SDS011;11814;44.686;10.842;2023-07-13T10:17:51;13.68;;;4.57;;
23290;SDS011;11814;44.686;10.842;2023-07-13T10:20:20;17.48;;;4.28;;
23290;SDS011;11814;44.686;10.842;2023-07-13T10:25:31;12.63;;;4.00;;
23290;SDS011;11814;44.686;10.842;2023-07-13T10:28:16;10.38;;;4.70;;
23290;SDS011;11814;44.686;10.842;2023-07-13T10:30:52;11.55;;;4.90;;
23290;SDS011;11814;44.686;10.842;2023-07-13T10:33:19;8.48;;;4.82;;
23290;SDS011;11814;44.686;10.842;2023-07-13T10:35:47;12.55;;;5.15;;
23290;SDS011;11814;44.686;10.842;2023-07-13T10:38:18;13.48;;;6.30;;
23290;SDS011;11814;44.686;10.842;2023-07-13T10:41:07;19.77;;;5.93;;
23290;SDS011;11814;44.686;10.842;2023-07-13T10:43:45;17.35;;;5.28;;
23290;SDS011;11814;44.686;10.842;2023-07-13T10:46:15;15.82;;;5.15;;
23290;SDS011;11814;44.686;10.842;2023-07-13T10:48:44;11.00;;;6.13;;
23290;SDS011;11814;44.686;10.842;2023-07-13T10:51:14;16.42;;;4.90;;
23290;SDS011;11814;44.686;10.842;2023-07-13T10:53:42;11.38;;;5.80;;
23290;SDS011;11814;44.686;10.842;2023-07-13T11:02:21;15.82;;;6.60;;
23290;SDS011;11814;44.686;10.842;2023-07-13T11:04:27;12.68;;;7.43;;
23290;SDS011;11814;44.686;10.842;2023-07-13T11:07:10;17.40;;;7.95;;
23290;SDS011;11814;44.686;10.842;2023-07-13T11:09:42;11.13;;;7.70;;
23290;SDS011;11814;44.686;10.842;2023-07-13T11:19:53;16.55;;;6.63;;
23290;SDS011;11814;44.686;10.842;2023-07-13T11:22:23;16.42;;;7.43;;
23290;SDS011;11814;44.686;10.842;2023-07-13T11:27:36;28.30;;;12.52;;
23290;SDS011;11814;44.686;10.842;2023-07-13T11:30:22;21.83;;;8.55;;
23290;SDS011;11814;44.686;10.842;2023-07-13T11:32:51;18.45;;;6.28;;
23290;SDS011;11814;44.686;10.842;2023-07-13T11:35:31;15.77;;;6.53;;
23290;SDS011;11814;44.686;10.842;2023-07-13T11:38:01;16.75;;;8.60;;
23290;SDS011;11814;44.686;10.842;2023-07-13T11:40:28;16.67;;;9.23;;
23290;SDS011;11814;44.686;10.842;2023-07-13T11:43:01;15.30;;;8.45;;
23290;SDS011;11814;44.686;10.842;2023-07-13T11:45:31;12.82;;;8.73;;
23290;SDS011;11814;44.686;10.842;2023-07-13T11:47:57;14.90;;;9.68;;
23290;SDS011;11814;44.686;10.842;2023-07-13T11:50:25;15.65;;;8.75;;
23290;SDS011;11814;44.686;10.842;2023-07-13T11:52:51;23.75;;;8.90;;
23290;SDS011;11814;44.686;10.842;2023-07-13T11:55:20;18.05;;;8.48;;
23290;SDS011;11814;44.686;10.842;2023-07-13T12:00:18;20.17;;;8.45;;
23290;SDS011;11814;44.686;10.842;2023-07-13T12:02:48;22.75;;;7.45;;
23290;SDS011;11814;44.686;10.842;2023-07-13T12:05:17;20.92;;;9.23;;
23290;SDS011;11814;44.686;10.842;2023-07-13T12:07:45;19.67;;;8.52;;
23290;SDS011;11814;44.686;10.842;2023-07-13T12:12:52;17.42;;;7.60;;
23290;SDS011;11814;44.686;10.842;2023-07-13T12:15:19;16.90;;;9.40;;
23290;SDS011;11814;44.686;10.842;2023-07-13T12:17:47;15.27;;;8.73;;
23290;SDS011;11814;44.686;10.842;2023-07-13T12:20:21;20.27;;;7.95;;
23290;SDS011;11814;44.686;10.842;2023-07-13T12:22:58;16.35;;;8.25;;
23290;SDS011;11814;44.686;10.842;2023-07-13T12:25:24;17.90;;;8.75;;
23290;SDS011;11814;44.686;10.842;2023-07-13T12:27:50;20.02;;;9.15;;
23290;SDS011;11814;44.686;10.842;2023-07-13T12:30:22;15.75;;;7.47;;
23290;SDS011;11814;44.686;10.842;2023-07-13T12:33:07;17.55;;;7.40;;
23290;SDS011;11814;44.686;10.842;2023-07-13T12:35:40;12.38;;;6.70;;
23290;SDS011;11814;44.686;10.842;2023-07-13T12:38:13;20.25;;;7.10;;
23290;SDS011;11814;44.686;10.842;2023-07-13T12:40:40;16.38;;;7.03;;
23290;SDS011;11814;44.686;10.842;2023-07-13T12:43:12;22.33;;;7.05;;
23290;SDS011;11814;44.686;10.842;2023-07-13T12:45:39;18.25;;;7.50;;
23290;SDS011;11814;44.686;10.842;2023-07-13T12:48:38;17.25;;;6.20;;
23290;SDS011;11814;44.686;10.842;2023-07-13T12:51:08;14.85;;;6.50;;
23290;SDS011;11814;44.686;10.842;2023-07-13T12:53:38;18.17;;;6.47;;
23290;SDS011;11814;44.686;10.842;2023-07-13T12:56:08;14.95;;;5.60;;
23290;SDS011;11814;44.686;10.842;2023-07-13T12:58:43;10.82;;;5.70;;
23290;SDS011;11814;44.686;10.842;2023-07-13T13:01:10;15.77;;;5.90;;
23290;SDS011;11814;44.686;10.842;2023-07-13T13:03:39;16.35;;;6.15;;
23290;SDS011;11814;44.686;10.842;2023-07-13T13:08:44;18.83;;;6.22;;
23290;SDS011;11814;44.686;10.842;2023-07-13T13:11:11;22.52;;;5.63;;
23290;SDS011;11814;44.686;10.842;2023-07-13T13:13:41;15.48;;;6.10;;
23290;SDS011;11814;44.686;10.842;2023-07-13T13:19:15;15.77;;;6.00;;
23290;SDS011;11814;44.686;10.842;2023-07-13T13:21:44;16.58;;;4.93;;
23290;SDS011;11814;44.686;10.842;2023-07-13T13:24:14;16.20;;;5.68;;
23290;SDS011;11814;44.686;10.842;2023-07-13T13:26:42;13.93;;;5.85;;
23290;SDS011;11814;44.686;10.842;2023-07-13T13:29:11;10.85;;;5.10;;
23290;SDS011;11814;44.686;10.842;2023-07-13T13:31:39;14.50;;;5.25;;
23290;SDS011;11814;44.686;10.842;2023-07-13T13:34:07;9.95;;;5.03;;
23290;SDS011;11814;44.686;10.842;2023-07-13T13:36:35;17.25;;;5.75;;
23290;SDS011;11814;44.686;10.842;2023-07-13T13:39:01;12.40;;;5.43;;
23290;SDS011;11814;44.686;10.842;2023-07-13T13:41:27;17.85;;;5.60;;
23290;SDS011;11814;44.686;10.842;2023-07-13T13:43:53;11.30;;;5.50;;
23290;SDS011;11814;44.686;10.842;2023-07-13T13:46:19;16.38;;;5.43;;
23290;SDS011;11814;44.686;10.842;2023-07-13T13:48:47;14.35;;;5.32;;
23290;SDS011;11814;44.686;10.842;2023-07-13T13:51:15;15.73;;;4.72;;
23290;SDS011;11814;44.686;10.842;2023-07-13T13:53:45;11.73;;;4.50;;
23290;SDS011;11814;44.686;10.842;2023-07-13T13:56:14;12.75;;;4.72;;
23290;SDS011;11814;44.686;10.842;2023-07-13T13:58:42;17.08;;;5.30;;
23290;SDS011;11814;44.686;10.842;2023-07-13T14:01:11;13.55;;;4.63;;
23290;SDS011;11814;44.686;10.842;2023-07-13T14:03:49;14.75;;;5.00;;
23290;SDS011;11814;44.686;10.842;2023-07-13T14:06:18;16.35;;;5.78;;
23290;SDS011;11814;44.686;10.842;2023-07-13T14:08:44;16.80;;;4.97;;
23290;SDS011;11814;44.686;10.842;2023-07-13T14:11:16;12.95;;;4.47;;
23290;SDS011;11814;44.686;10.842;2023-07-13T14:13:49;12.52;;;5.22;;
23290;SDS011;11814;44.686;10.842;2023-07-13T14:16:20;17.63;;;5.25;;
23290;SDS011;11814;44.686;10.842;2023-07-13T14:18:48;11.30;;;4.78;;
23290;SDS011;11814;44.686;10.842;2023-07-13T14:21:18;13.20;;;4.53;;
23290;SDS011;11814;44.686;10.842;2023-07-13T14:23:46;11.82;;;4.68;;
23290;SDS011;11814;44.686;10.842;2023-07-13T14:26:13;11.88;;;4.50;;
23290;SDS011;11814;44.686;10.842;2023-07-13T14:28:42;13.50;;;5.03;;
23290;SDS011;11814;44.686;10.842;2023-07-13T14:31:14;11.20;;;4.60;;
23290;SDS011;11814;44.686;10.842;2023-07-13T14:33:41;15.27;;;4.90;;
23290;SDS011;11814;44.686;10.842;2023-07-13T14:36:18;14.05;;;5.53;;
23290;SDS011;11814;44.686;10.842;2023-07-13T14:38:57;12.25;;;4.70;;
23290;SDS011;11814;44.686;10.842;2023-07-13T14:41:24;12.75;;;4.68;;
23290;SDS011;11814;44.686;10.842;2023-07-13T14:43:50;14.43;;;4.32;;
23290;SDS011;11814;44.686;10.842;2023-07-13T14:46:29;15.02;;;4.65;;
23290;SDS011;11814;44.686;10.842;2023-07-13T14:49:01;17.00;;;5.60;;
23290;SDS011;11814;44.686;10.842;2023-07-13T14:51:30;13.68;;;5.78;;
23290;SDS011;11814;44.686;10.842;2023-07-13T14:54:00;16.20;;;5.30;;
23290;SDS011;11814;44.686;10.842;2023-07-13T14:56:29;18.70;;;5.57;;
23290;SDS011;11814;44.686;10.842;2023-07-13T14:58:55;32.55;;;14.80;;
23290;SDS011;11814;44.686;10.842;2023-07-13T15:01:21;22.88;;;7.55;;
23290;SDS011;11814;44.686;10.842;2023-07-13T15:03:48;25.15;;;8.15;;
23290;SDS011;11814;44.686;10.842;2023-07-13T15:06:16;22.10;;;9.82;;
23290;SDS011;11814;44.686;10.842;2023-07-13T15:08:42;20.85;;;5.53;;
23290;SDS011;11814;44.686;10.842;2023-07-13T15:11:08;12.88;;;6.22;;
23290;SDS011;11814;44.686;10.842;2023-07-13T15:13:36;13.02;;;5.03;;
23290;SDS011;11814;44.686;10.842;2023-07-13T15:16:04;11.20;;;5.00;;
23290;SDS011;11814;44.686;10.842;2023-07-13T15:18:34;23.15;;;5.57;;
23290;SDS011;11814;44.686;10.842;2023-07-13T15:21:03;16.60;;;5.60;;
23290;SDS011;11814;44.686;10.842;2023-07-13T15:23:29;16.40;;;5.50;;
23290;SDS011;11814;44.686;10.842;2023-07-13T15:25:54;13.90;;;5.72;;
23290;SDS011;11814;44.686;10.842;2023-07-13T15:28:20;17.55;;;4.93;;
23290;SDS011;11814;44.686;10.842;2023-07-13T15:30:47;14.30;;;4.95;;
23290;SDS011;11814;44.686;10.842;2023-07-13T15:35:44;12.95;;;5.10;;
23290;SDS011;11814;44.686;10.842;2023-07-13T15:38:16;15.75;;;5.10;;